createdAt,value
2019-04-27T00:01:10.557Z,8.90
2019-04-27T00:03:45.999Z,8.70
2019-04-27T00:06:17.877Z,8.90
2019-04-27T00:08:55.368Z,8.90
2019-04-27T00:11:33.200Z,8.80
2019-04-27T00:14:04.098Z,8.70
2019-04-27T00:16:59.991Z,8.70
2019-04-27T00:19:44.691Z,8.80
2019-04-27T00:22:43.961Z,8.80
2019-04-27T00:25:15.852Z,8.70
2019-04-27T00:27:46.404Z,8.80
2019-04-27T00:30:18.089Z,8.50
2019-04-27T00:32:48.991Z,8.50
2019-04-27T00:35:25.603Z,8.50
2019-04-27T00:38:08.487Z,8.40
2019-04-27T00:40:41.558Z,8.40
2019-04-27T00:43:13.937Z,8.50
2019-04-27T00:45:44.998Z,8.50
2019-04-27T00:48:15.834Z,8.40
2019-04-27T00:50:46.677Z,8.40
2019-04-27T00:53:18.946Z,8.50
2019-04-27T00:56:09.149Z,8.40
2019-04-27T00:58:49.357Z,8.30
2019-04-27T01:01:33.354Z,8.40
2019-04-27T01:04:08.113Z,8.50
2019-04-27T01:06:40.710Z,8.50
2019-04-27T01:09:13.861Z,8.40
2019-04-27T01:11:44.379Z,8.50
2019-04-27T01:14:15.187Z,8.40
2019-04-27T01:16:46.132Z,8.40
2019-04-27T01:19:16.891Z,8.30
2019-04-27T01:21:49.530Z,8.20
2019-04-27T01:27:19.934Z,8.50
2019-04-27T01:29:50.311Z,8.50
2019-04-27T01:32:20.944Z,8.40
2019-04-27T01:34:52.831Z,8.10
2019-04-27T01:37:25.021Z,8.00
2019-04-27T01:39:58.933Z,8.30
2019-04-27T01:42:29.515Z,8.30
2019-04-27T01:45:01.773Z,8.40
2019-04-27T01:47:32.569Z,8.20
2019-04-27T01:50:03.362Z,8.40
2019-04-27T01:52:33.836Z,8.20
2019-04-27T01:55:04.364Z,8.10
2019-04-27T01:57:35.985Z,8.20
2019-04-27T02:00:17.044Z,8.10
2019-04-27T02:02:53.983Z,8.00
2019-04-27T02:05:46.981Z,8.40
2019-04-27T02:08:17.341Z,8.20
2019-04-27T02:10:49.587Z,8.40
2019-04-27T02:13:20.730Z,8.30
2019-04-27T02:15:52.485Z,8.30
2019-04-27T02:18:36.914Z,8.40
2019-04-27T02:20:59.146Z,8.30
2019-04-27T02:23:30.934Z,8.40
2019-04-27T02:26:03.039Z,8.40
2019-04-27T02:28:58.720Z,8.30
2019-04-27T02:31:53.420Z,8.40
2019-04-27T02:34:26.350Z,8.20
2019-04-27T02:36:59.560Z,8.40
2019-04-27T02:39:29.900Z,8.20
2019-04-27T02:42:00.479Z,8.30
2019-04-27T02:44:36.654Z,8.10
2019-04-27T02:47:07.081Z,8.30
2019-04-27T02:49:40.481Z,8.30
2019-04-27T02:52:27.127Z,8.40
2019-04-27T02:54:59.424Z,8.30
2019-04-27T02:57:33.137Z,8.40
2019-04-27T03:00:04.206Z,8.00
2019-04-27T03:02:43.737Z,8.10
2019-04-27T03:05:22.038Z,8.30
2019-04-27T03:07:53.694Z,8.40
2019-04-27T03:10:27.094Z,8.30
2019-04-27T03:13:23.839Z,8.40
2019-04-27T03:16:13.525Z,8.40
2019-04-27T03:19:11.482Z,8.40
2019-04-27T03:21:55.344Z,8.40
2019-04-27T03:24:44.741Z,8.10
2019-04-27T03:27:19.845Z,8.40
2019-04-27T03:29:50.486Z,8.20
2019-04-27T03:32:23.014Z,8.10
2019-04-27T03:34:55.129Z,8.30
2019-04-27T03:37:26.056Z,8.40
2019-04-27T03:40:00.138Z,8.00
2019-04-27T03:42:37.150Z,8.10
2019-04-27T03:45:07.050Z,8.30
2019-04-27T03:47:40.621Z,8.30
2019-04-27T03:50:14.115Z,8.40
2019-04-27T03:53:00.050Z,8.30
2019-04-27T03:55:33.332Z,8.30
2019-04-27T03:58:24.811Z,8.40
2019-04-27T04:00:55.702Z,8.50
2019-04-27T04:03:29.653Z,8.40
2019-04-27T04:06:00.316Z,8.50
2019-04-27T04:08:31.697Z,8.50
2019-04-27T04:11:10.291Z,8.40
2019-04-27T04:13:50.380Z,8.50
2019-04-27T04:16:29.690Z,8.50
2019-04-27T04:19:04.289Z,8.50
2019-04-27T04:21:36.024Z,8.50
2019-04-27T04:24:09.514Z,8.40
2019-04-27T04:26:41.597Z,8.20
2019-04-27T04:29:12.286Z,8.40
2019-04-27T04:31:43.373Z,8.30
2019-04-27T04:34:16.461Z,8.40
2019-04-27T04:36:50.368Z,8.20
2019-04-27T04:39:21.287Z,8.40
2019-04-27T04:42:06.099Z,8.00
2019-04-27T04:44:56.227Z,8.30
2019-04-27T04:47:43.143Z,8.40
2019-04-27T04:50:15.571Z,8.40
2019-04-27T04:52:49.949Z,8.60
2019-04-27T04:55:20.639Z,8.50
2019-04-27T04:57:53.142Z,8.70
2019-04-27T05:00:24.904Z,8.50
2019-04-27T05:02:56.713Z,8.80
2019-04-27T05:05:29.413Z,8.70
2019-04-27T05:08:00.680Z,8.80
2019-04-27T05:10:31.420Z,8.70
2019-04-27T05:13:03.654Z,8.70
2019-04-27T05:15:34.433Z,8.80
2019-04-27T05:18:05.166Z,8.40
2019-04-27T05:20:43.575Z,8.60
2019-04-27T05:23:14.010Z,8.50
2019-04-27T05:25:46.012Z,8.80
2019-04-27T05:28:18.605Z,8.50
2019-04-27T05:30:49.095Z,8.70
2019-04-27T05:33:19.509Z,8.50
2019-04-27T05:35:49.942Z,8.80
2019-04-27T05:38:20.367Z,8.50
2019-04-27T05:40:51.117Z,8.50
2019-04-27T05:43:30.149Z,8.70
2019-04-27T05:46:39.629Z,8.80
2019-04-27T05:49:15.770Z,8.90
2019-04-27T05:51:48.492Z,9.10
2019-04-27T05:54:19.970Z,8.80
2019-04-27T05:56:51.833Z,9.00
2019-04-27T05:59:23.892Z,9.20
2019-04-27T06:01:56.179Z,9.40
2019-04-27T06:04:26.579Z,9.00
2019-04-27T06:07:00.855Z,9.40
2019-04-27T06:09:31.750Z,9.10
2019-04-27T06:12:04.986Z,9.10
2019-04-27T06:14:35.671Z,9.10
2019-04-27T06:17:06.657Z,9.20
2019-04-27T06:19:38.987Z,9.20
2019-04-27T06:22:11.476Z,9.20
2019-04-27T06:24:42.102Z,9.60
2019-04-27T06:27:14.282Z,9.80
2019-04-27T06:29:44.637Z,9.70
2019-04-27T06:32:15.393Z,9.70
2019-04-27T06:34:46.097Z,10.00
2019-04-27T06:37:19.302Z,10.00
2019-04-27T06:39:50.297Z,10.00
2019-04-27T06:42:20.824Z,10.40
2019-04-27T06:44:53.094Z,10.40
2019-04-27T06:47:24.772Z,10.60
2019-04-27T06:49:56.123Z,10.90
2019-04-27T06:52:29.113Z,10.60
2019-04-27T06:55:06.239Z,11.10
2019-04-27T06:57:37.195Z,11.00
2019-04-27T07:00:09.062Z,11.10
2019-04-27T07:02:41.144Z,11.00
2019-04-27T07:05:11.697Z,11.10
2019-04-27T07:07:42.744Z,11.10
2019-04-27T07:10:13.442Z,11.00
2019-04-27T07:12:43.903Z,11.30
2019-04-27T07:15:15.573Z,11.20
2019-04-27T07:17:46.126Z,11.40
2019-04-27T07:20:18.873Z,11.40
2019-04-27T07:22:49.747Z,11.40
2019-04-27T07:25:22.044Z,11.60
2019-04-27T07:27:54.934Z,11.60
2019-04-27T07:30:25.264Z,11.40
2019-04-27T07:32:55.999Z,11.70
2019-04-27T07:35:26.705Z,11.80
2019-04-27T07:37:58.715Z,11.80
2019-04-27T07:40:30.392Z,11.60
2019-04-27T07:43:14.697Z,11.40
2019-04-27T07:45:49.440Z,11.40
2019-04-27T07:48:21.266Z,11.30
2019-04-27T07:50:52.434Z,11.90
2019-04-27T07:53:23.212Z,11.80
2019-04-27T07:55:54.630Z,11.70
2019-04-27T07:58:25.975Z,11.80
2019-04-27T08:00:56.333Z,12.20
2019-04-27T08:03:26.704Z,12.20
2019-04-27T08:05:58.944Z,12.20
2019-04-27T08:08:30.330Z,12.50
2019-04-27T08:11:01.123Z,13.00
2019-04-27T08:13:32.602Z,14.00
2019-04-27T08:16:03.020Z,14.30
2019-04-27T08:18:34.485Z,14.40
2019-04-27T08:21:06.099Z,14.20
2019-04-27T08:23:39.429Z,14.00
2019-04-27T08:26:20.020Z,13.80
2019-04-27T08:29:19.657Z,13.80
2019-04-27T08:31:56.531Z,13.70
2019-04-27T08:34:33.096Z,13.80
2019-04-27T08:37:05.218Z,13.70
2019-04-27T08:39:35.993Z,14.10
2019-04-27T08:42:06.709Z,14.40
2019-04-27T08:44:37.207Z,14.40
2019-04-27T08:47:09.684Z,14.50
2019-04-27T08:49:40.089Z,14.20
2019-04-27T08:52:11.823Z,14.40
2019-04-27T08:54:44.210Z,14.20
2019-04-27T08:57:14.962Z,14.10
2019-04-27T08:59:45.389Z,14.50
2019-04-27T09:02:16.402Z,14.30
2019-04-27T09:04:49.372Z,14.30
2019-04-27T09:07:36.318Z,14.30
2019-04-27T09:10:12.726Z,13.80
2019-04-27T09:12:53.343Z,13.70
2019-04-27T09:15:33.142Z,13.40
2019-04-27T09:18:03.566Z,13.40
2019-04-27T09:20:55.050Z,13.40
2019-04-27T09:23:28.508Z,13.40
2019-04-27T09:25:59.435Z,13.30
2019-04-27T09:28:30.316Z,13.80
2019-04-27T09:31:01.152Z,13.90
2019-04-27T09:33:31.574Z,14.10
2019-04-27T09:36:03.814Z,15.00
2019-04-27T09:38:35.770Z,15.10
2019-04-27T09:41:08.780Z,15.00
2019-04-27T09:43:42.600Z,14.70
2019-04-27T09:46:15.764Z,14.60
2019-04-27T09:48:46.727Z,14.50
2019-04-27T09:51:18.674Z,14.30
2019-04-27T09:53:50.590Z,14.10
2019-04-27T09:56:20.984Z,14.10
2019-04-27T09:58:51.383Z,13.60
2019-04-27T10:01:21.888Z,13.30
2019-04-27T10:03:56.641Z,13.20
2019-04-27T10:06:29.845Z,13.20
2019-04-27T10:09:00.723Z,13.20
2019-04-27T10:11:35.651Z,13.30
2019-04-27T10:14:07.547Z,13.20
2019-04-27T10:16:38.377Z,13.10
2019-04-27T10:19:08.775Z,13.10
2019-04-27T10:21:39.546Z,12.80
2019-04-27T10:24:10.285Z,12.50
2019-04-27T10:26:43.685Z,12.60
2019-04-27T10:29:13.391Z,13.10
2019-04-27T10:31:44.182Z,12.90
2019-04-27T10:34:16.697Z,13.10
2019-04-27T10:36:47.391Z,13.30
2019-04-27T10:39:17.994Z,13.20
2019-04-27T10:41:50.201Z,13.20
2019-04-27T10:44:21.995Z,13.50
2019-04-27T10:46:52.392Z,13.60
2019-04-27T10:49:22.734Z,13.30
2019-04-27T10:51:55.814Z,13.50
2019-04-27T10:54:28.020Z,13.30
2019-04-27T10:56:58.391Z,13.40
2019-04-27T10:59:30.567Z,13.20
2019-04-27T11:02:04.211Z,13.10
2019-04-27T11:05:00.483Z,12.90
2019-04-27T11:07:36.184Z,12.80
2019-04-27T11:10:07.872Z,13.20
2019-04-27T11:12:39.962Z,13.30
2019-04-27T11:15:11.087Z,12.90
2019-04-27T11:17:42.604Z,13.40
2019-04-27T11:20:14.213Z,13.00
2019-04-27T11:22:46.481Z,13.10
2019-04-27T11:25:20.998Z,12.90
2019-04-27T11:27:53.261Z,13.00
2019-04-27T11:30:25.152Z,12.60
2019-04-27T11:32:58.905Z,12.90
2019-04-27T11:35:47.051Z,13.10
2019-04-27T11:38:17.433Z,13.00
2019-04-27T11:40:49.178Z,13.30
2019-04-27T11:43:19.940Z,13.10
2019-04-27T11:45:50.293Z,13.40
2019-04-27T11:48:21.071Z,13.40
2019-04-27T11:50:52.557Z,13.30
2019-04-27T11:53:23.307Z,13.10
2019-04-27T11:55:53.695Z,13.30
2019-04-27T11:58:26.535Z,13.60
2019-04-27T12:00:59.054Z,13.80
2019-04-27T12:03:30.624Z,13.80
2019-04-27T12:06:01.667Z,14.70
2019-04-27T12:08:36.542Z,14.80
2019-04-27T12:11:06.956Z,14.90
2019-04-27T12:13:37.309Z,15.40
2019-04-27T12:16:07.655Z,15.00
2019-04-27T12:18:38.411Z,15.40
2019-04-27T12:21:09.457Z,15.40
2019-04-27T12:23:41.424Z,15.40
2019-04-27T12:26:27.360Z,15.50
2019-04-27T12:28:59.091Z,15.50
2019-04-27T12:31:35.786Z,15.40
2019-04-27T12:34:06.820Z,15.30
2019-04-27T12:36:37.501Z,15.00
2019-04-27T12:39:15.510Z,14.90
2019-04-27T12:41:47.554Z,14.70
2019-04-27T12:44:18.530Z,14.50
2019-04-27T12:46:48.833Z,14.80
2019-04-27T12:49:19.183Z,15.00
2019-04-27T12:51:52.463Z,14.70
2019-04-27T12:54:31.680Z,14.90
2019-04-27T12:57:23.644Z,14.50
2019-04-27T13:00:06.655Z,14.50
2019-04-27T13:02:37.172Z,14.50
2019-04-27T13:05:09.544Z,14.40
2019-04-27T13:07:40.316Z,14.10
2019-04-27T13:10:15.928Z,13.70
2019-04-27T13:12:49.413Z,14.10
2019-04-27T13:15:20.074Z,13.90
2019-04-27T13:17:52.241Z,14.40
2019-04-27T13:20:25.644Z,14.40
2019-04-27T13:22:56.881Z,14.80
2019-04-27T13:25:29.044Z,15.20
2019-04-27T13:28:02.281Z,15.10
2019-04-27T13:30:35.838Z,15.30
2019-04-27T13:33:08.011Z,15.00
2019-04-27T13:35:38.473Z,14.70
2019-04-27T13:38:10.230Z,14.70
2019-04-27T13:40:43.519Z,14.60
2019-04-27T13:43:23.427Z,14.30
2019-04-27T13:46:21.578Z,14.50
2019-04-27T13:49:17.842Z,14.50
2019-04-27T13:51:53.649Z,14.50
2019-04-27T13:54:28.397Z,14.40
2019-04-27T13:56:56.581Z,14.00
2019-04-27T13:59:31.711Z,13.80
2019-04-27T14:02:01.721Z,14.10
2019-04-27T14:04:32.087Z,13.90
2019-04-27T14:07:03.500Z,13.50
2019-04-27T14:09:34.200Z,13.90
2019-04-27T14:12:21.758Z,13.70
2019-04-27T14:14:54.305Z,13.80
2019-04-27T14:17:24.704Z,13.90
2019-04-27T14:19:55.076Z,14.00
2019-04-27T14:22:28.236Z,14.10
2019-04-27T14:24:59.027Z,14.70
2019-04-27T14:27:36.607Z,14.30
2019-04-27T14:30:09.121Z,14.20
2019-04-27T14:32:42.185Z,14.10
2019-04-27T14:35:13.888Z,13.80
2019-04-27T14:37:47.451Z,14.00
2019-04-27T14:40:18.482Z,14.30
2019-04-27T14:42:53.443Z,14.10
2019-04-27T14:45:24.607Z,14.10
2019-04-27T14:47:58.214Z,14.80
2019-04-27T14:50:30.383Z,15.20
2019-04-27T14:53:02.062Z,15.30
2019-04-27T14:55:32.576Z,15.20
2019-04-27T14:58:02.848Z,15.10
2019-04-27T15:00:33.282Z,15.00
2019-04-27T15:03:03.655Z,14.70
2019-04-27T15:05:36.933Z,14.50
2019-04-27T15:08:09.716Z,14.60
2019-04-27T15:10:41.303Z,14.40
2019-04-27T15:13:13.135Z,14.40
2019-04-27T15:15:43.485Z,14.40
2019-04-27T15:18:15.453Z,14.60
2019-04-27T15:20:47.375Z,14.50
2019-04-27T15:23:17.957Z,14.60
2019-04-27T15:25:50.017Z,14.80
2019-04-27T15:28:24.356Z,14.70
2019-04-27T15:31:23.575Z,14.60
2019-04-27T15:34:11.447Z,15.00
2019-04-27T15:37:12.798Z,15.30
2019-04-27T15:40:14.194Z,15.80
2019-04-27T15:42:53.301Z,15.60
2019-04-27T15:45:25.737Z,15.50
2019-04-27T15:47:58.419Z,15.50
2019-04-27T15:50:32.260Z,15.00
2019-04-27T15:53:02.946Z,14.90
2019-04-27T15:55:37.390Z,14.90
2019-04-27T15:58:10.116Z,14.60
2019-04-27T16:00:40.818Z,14.50
2019-04-27T16:03:11.550Z,14.30
2019-04-27T16:05:41.975Z,14.20
2019-04-27T16:08:15.290Z,14.40
2019-04-27T16:10:46.371Z,14.20
2019-04-27T16:13:18.280Z,14.20
2019-04-27T16:15:54.109Z,14.40
2019-04-27T16:18:31.044Z,13.90
2019-04-27T16:20:58.632Z,13.90
2019-04-27T16:23:29.634Z,13.90
2019-04-27T16:26:05.144Z,14.00
2019-04-27T16:28:35.733Z,13.80
2019-04-27T16:31:06.269Z,13.70
2019-04-27T16:33:39.104Z,13.70
2019-04-27T16:36:09.960Z,13.70
2019-04-27T16:38:53.495Z,13.60
2019-04-27T16:41:28.142Z,13.70
2019-04-27T16:44:02.229Z,13.70
2019-04-27T16:46:34.803Z,13.70
2019-04-27T16:49:13.544Z,13.60
2019-04-27T16:51:40.292Z,13.50
2019-04-27T16:54:17.669Z,13.80
2019-04-27T16:56:45.598Z,13.70
2019-04-27T16:59:38.647Z,13.70
2019-04-27T17:01:50.275Z,13.70
2019-04-27T17:04:24.087Z,13.50
2019-04-27T17:06:54.814Z,13.40
2019-04-27T17:09:26.256Z,13.60
2019-04-27T17:11:59.277Z,13.60
2019-04-27T17:14:38.720Z,13.40
2019-04-27T17:17:31.876Z,13.30
2019-04-27T17:20:04.019Z,13.10
2019-04-27T17:22:36.835Z,13.20
2019-04-27T17:25:10.255Z,13.10
2019-04-27T17:27:48.232Z,13.10
2019-04-27T17:30:20.798Z,13.00
2019-04-27T17:33:25.427Z,12.50
2019-04-27T17:35:57.671Z,12.30
2019-04-27T17:38:30.475Z,11.70
2019-04-27T17:41:04.659Z,11.10
2019-04-27T17:43:37.457Z,10.70
2019-04-27T17:46:11.580Z,10.60
2019-04-27T17:48:39.843Z,10.10
2019-04-27T17:51:10.812Z,10.30
2019-04-27T17:53:41.261Z,10.00
2019-04-27T17:56:13.813Z,10.10
2019-04-27T17:58:45.421Z,9.90
2019-04-27T18:01:19.193Z,9.90
2019-04-27T18:03:58.406Z,9.70
2019-04-27T18:06:24.241Z,9.30
2019-04-27T18:08:54.903Z,9.40
2019-04-27T18:11:24.875Z,9.50
2019-04-27T18:13:55.966Z,9.10
2019-04-27T18:16:33.957Z,9.10
2019-04-27T18:19:18.262Z,9.10
2019-04-27T18:22:00.859Z,8.90
2019-04-27T18:24:39.935Z,8.90
2019-04-27T18:27:18.364Z,9.20
2019-04-27T18:29:49.952Z,9.20
2019-04-27T18:32:23.650Z,9.20
2019-04-27T18:34:55.442Z,9.20
2019-04-27T18:37:28.209Z,9.20
2019-04-27T18:39:58.531Z,9.20
2019-04-27T18:42:31.291Z,9.20
2019-04-27T18:45:06.839Z,9.20
2019-04-27T18:47:38.658Z,8.90
2019-04-27T18:50:43.462Z,9.10
2019-04-27T18:53:28.706Z,9.10
2019-04-27T18:56:04.868Z,9.00
2019-04-27T18:58:32.468Z,9.30
2019-04-27T19:01:03.275Z,8.90
2019-04-27T19:03:34.356Z,9.20
2019-04-27T19:06:06.202Z,9.20
2019-04-27T19:08:38.583Z,9.10
2019-04-27T19:11:10.120Z,9.10
2019-04-27T19:13:40.630Z,9.00
2019-04-27T19:16:12.686Z,9.30
2019-04-27T19:18:43.383Z,8.80
2019-04-27T19:21:14.320Z,8.80
2019-04-27T19:23:46.584Z,9.00
2019-04-27T19:26:22.826Z,9.10
2019-04-27T19:29:03.624Z,8.90
2019-04-27T19:31:38.277Z,8.80
2019-04-27T19:34:09.205Z,8.90
2019-04-27T19:36:39.588Z,8.80
2019-04-27T19:39:14.078Z,8.80
2019-04-27T19:41:56.807Z,8.80
2019-04-27T19:44:20.112Z,8.80
2019-04-27T19:46:50.844Z,8.70
2019-04-27T19:49:24.279Z,8.90
2019-04-27T19:51:54.664Z,8.90
2019-04-27T19:54:28.263Z,8.80
2019-04-27T19:56:59.635Z,8.50
2019-04-27T19:59:38.099Z,8.50
2019-04-27T20:02:12.905Z,9.00
2019-04-27T20:04:45.305Z,8.70
2019-04-27T20:07:18.784Z,8.50
2019-04-27T20:09:58.367Z,8.50
2019-04-27T20:12:31.182Z,8.50
2019-04-27T20:15:02.269Z,8.50
2019-04-27T20:17:35.731Z,8.50
2019-04-27T20:20:07.752Z,8.60
2019-04-27T20:22:38.130Z,8.50
2019-04-27T20:25:11.084Z,8.30
2019-04-27T20:27:48.398Z,8.40
2019-04-27T20:30:15.211Z,8.50
2019-04-27T20:32:46.350Z,8.50
2019-04-27T20:35:19.456Z,8.20
2019-04-27T20:37:51.719Z,8.10
2019-04-27T20:40:22.449Z,8.30
2019-04-27T20:42:52.827Z,8.00
2019-04-27T20:45:24.646Z,8.10
2019-04-27T20:47:56.973Z,8.10
2019-04-27T20:50:28.000Z,7.90
2019-04-27T20:52:59.830Z,8.20
2019-04-27T20:55:32.345Z,8.30
2019-04-27T20:58:04.741Z,8.10
2019-04-27T21:00:35.253Z,8.10
2019-04-27T21:03:12.046Z,8.00
2019-04-27T21:06:11.303Z,8.10
2019-04-27T21:08:43.543Z,7.90
2019-04-27T21:11:14.290Z,8.00
2019-04-27T21:13:45.019Z,8.10
2019-04-27T21:16:16.170Z,8.20
2019-04-27T21:18:46.895Z,8.10
2019-04-27T21:21:17.937Z,8.30
2019-04-27T21:23:51.492Z,8.10
2019-04-27T21:26:25.752Z,8.40
2019-04-27T21:28:57.711Z,8.30
2019-04-27T21:31:28.147Z,8.40
2019-04-27T21:33:59.878Z,8.50
2019-04-27T21:36:31.343Z,8.50
2019-04-27T21:39:01.735Z,8.50
2019-04-27T21:41:35.283Z,8.50
2019-04-27T21:44:06.025Z,8.40
2019-04-27T21:46:36.592Z,8.20
2019-04-27T21:49:11.193Z,8.10
2019-04-27T21:52:01.382Z,8.40
2019-04-27T21:54:36.107Z,8.10
2019-04-27T21:57:06.844Z,8.10
2019-04-27T21:59:37.248Z,8.20
2019-04-27T22:02:08.649Z,8.20
2019-04-27T22:04:41.675Z,7.80
2019-04-27T22:07:12.236Z,7.80
2019-04-27T22:09:43.333Z,7.70
2019-04-27T22:12:16.599Z,7.50
2019-04-27T22:14:46.971Z,7.70
2019-04-27T22:17:17.730Z,7.70
2019-04-27T22:19:51.328Z,7.80
2019-04-27T22:22:28.104Z,7.50
2019-04-27T22:25:08.637Z,7.80
2019-04-27T22:27:41.332Z,7.70
2019-04-27T22:30:12.499Z,7.50
2019-04-27T22:32:42.909Z,7.70
2019-04-27T22:35:13.380Z,7.50
2019-04-27T22:37:43.733Z,7.40
2019-04-27T22:40:45.436Z,7.50
2019-04-27T22:43:35.056Z,7.20
2019-04-27T22:46:08.646Z,6.90
2019-04-27T22:48:41.586Z,6.50
2019-04-27T22:51:11.994Z,6.60
2019-04-27T22:53:42.762Z,6.50
2019-04-27T22:56:17.082Z,6.50
2019-04-27T22:59:00.428Z,5.90
2019-04-27T23:01:47.824Z,6.20
2019-04-27T23:04:21.703Z,5.80
2019-04-27T23:06:52.654Z,6.20
2019-04-27T23:09:23.146Z,5.60
2019-04-27T23:11:54.606Z,5.80
2019-04-27T23:14:25.331Z,5.60
2019-04-27T23:17:00.803Z,5.80
2019-04-27T23:19:33.453Z,5.40
2019-04-27T23:22:05.990Z,5.60
2019-04-27T23:24:37.774Z,5.80
2019-04-27T23:27:11.107Z,5.30
2019-04-27T23:29:41.881Z,5.80
2019-04-27T23:32:28.688Z,5.50
2019-04-27T23:34:59.032Z,5.60
2019-04-27T23:37:30.972Z,5.50
2019-04-27T23:40:02.951Z,5.50
2019-04-27T23:42:34.770Z,5.40
2019-04-27T23:45:07.390Z,5.40
2019-04-27T23:47:38.862Z,5.60
2019-04-27T23:50:10.956Z,5.60
2019-04-27T23:53:09.206Z,5.50
2019-04-27T23:55:41.965Z,5.40
2019-04-27T23:58:14.150Z,5.30
